Sturgeon Bay, WI (54235)

1:04 PM CDT on July 28, 2016 (GMT -0500)
Leif Everson Observatory | | Change Station

Elev 636 ft 44.83 °N, 87.34 °W | Updated 1 minute ago

Overcast
Overcast
66.8 °F
Feels Like 66.8 °F
N
7.0
Wind Variable Wind from NNE
Gusts 7.0 mph

Today
High -- | Low -- °F
--% Chance of Precip.
Yesterday
High -- | Low -- °F
Precip. -- in
Pressure 30.06 in
Visibility 10.0 miles
Clouds Mostly Cloudy 5000 ft
Overcast 6000 ft
Dew Point 65 °F
Humidity 93%
Rainfall 0.16 in
Snow Depth Not available.
5:31 AM 8:19 PM
Waning Crescent, 30% visible
METAR KSUE 281756Z AUTO 04007KT 10SM BKN050 OVC060 19/16 A3001 RMK AO2 RAE47 SLP177 P0000 60000 T01940161 10194 20167 58001
Pressure 30.06 in
Visibility 10.0 miles
Clouds Mostly Cloudy 5000 ft
Overcast 6000 ft
Dew Point 65 °F
Humidity 93%
Rainfall 0.16 in
Snow Depth Not available.
5:31 AM 8:19 PM
Waning Crescent, 30% visible
METAR KSUE 281756Z AUTO 04007KT 10SM BKN050 OVC060 19/16 A3001 RMK AO2 RAE47 SLP177 P0000 60000 T01940161 10194 20167 58001

10-Day Weather Forecast

Almanac

Astronomy

Jul. 28, 2016 Rise Set
Actual Time
Civil Twilight
Nautical Twilight
Astronomical Twilight
Moon
Length of Visible Light
Length of Day
Tomorrow will be .
, % of the Moon is Illuminated

Today's Extremes

State Highs State Lows

Community

WunderPhotos

Upload Photos

1,928,172 photos uploaded!

WunderBlog® & News

Nearby

Air Quality

  Air Quality AQ Index Pollutant
Not available.

Snow Depth

Station Depth Elevation

Earthquake Activity

City Distance Mag. Time & Date
Minimum magnitude displayed is 2.5.

Coastal Water Temperatures

Place Temperature

Stations

Nearby Weather Stations

Station Location Temp. Windchill Dew Point Humidity Wind Precip. Elev Updated Type
                   

Watches & Warnings

There are currently no watches in effect.